sensor_id;sensor_type;location;lat;lon;timestamp;P1;durP1;ratioP1;P2;durP2;ratioP2
65289;SDS011;51893;59.754;10.110;2024-03-29T00:00:15;1.80;;;1.10;;
65289;SDS011;51893;59.754;10.110;2024-03-29T00:03:04;1.30;;;1.20;;
65289;SDS011;51893;59.754;10.110;2024-03-29T00:05:32;2.00;;;1.00;;
65289;SDS011;51893;59.754;10.110;2024-03-29T00:08:04;1.30;;;1.20;;
65289;SDS011;51893;59.754;10.110;2024-03-29T00:10:37;1.20;;;1.20;;
65289;SDS011;51893;59.754;10.110;2024-03-29T00:13:04;0.90;;;0.90;;
65289;SDS011;51893;59.754;10.110;2024-03-29T00:15:32;1.60;;;1.00;;
65289;SDS011;51893;59.754;10.110;2024-03-29T00:18:00;1.30;;;1.20;;
65289;SDS011;51893;59.754;10.110;2024-03-29T00:20:28;1.10;;;1.10;;
65289;SDS011;51893;59.754;10.110;2024-03-29T00:22:55;1.20;;;1.10;;
65289;SDS011;51893;59.754;10.110;2024-03-29T00:25:22;0.90;;;0.90;;
65289;SDS011;51893;59.754;10.110;2024-03-29T00:27:48;0.90;;;0.90;;
65289;SDS011;51893;59.754;10.110;2024-03-29T00:30:15;1.00;;;1.00;;
65289;SDS011;51893;59.754;10.110;2024-03-29T00:32:43;1.00;;;0.90;;
65289;SDS011;51893;59.754;10.110;2024-03-29T00:35:09;0.70;;;0.70;;
65289;SDS011;51893;59.754;10.110;2024-03-29T00:37:36;0.80;;;0.80;;
65289;SDS011;51893;59.754;10.110;2024-03-29T00:40:06;0.90;;;0.90;;
65289;SDS011;51893;59.754;10.110;2024-03-29T00:42:34;1.10;;;1.10;;
65289;SDS011;51893;59.754;10.110;2024-03-29T00:45:02;0.90;;;0.90;;
65289;SDS011;51893;59.754;10.110;2024-03-29T00:47:31;1.10;;;1.00;;
65289;SDS011;51893;59.754;10.110;2024-03-29T00:50:00;0.90;;;0.90;;
65289;SDS011;51893;59.754;10.110;2024-03-29T00:52:27;0.90;;;0.90;;
65289;SDS011;51893;59.754;10.110;2024-03-29T00:54:54;0.90;;;0.90;;
65289;SDS011;51893;59.754;10.110;2024-03-29T00:57:22;1.10;;;1.00;;
65289;SDS011;51893;59.754;10.110;2024-03-29T00:59:49;1.30;;;1.20;;
65289;SDS011;51893;59.754;10.110;2024-03-29T01:02:16;0.90;;;0.90;;
65289;SDS011;51893;59.754;10.110;2024-03-29T01:04:43;1.00;;;1.00;;
65289;SDS011;51893;59.754;10.110;2024-03-29T01:07:09;0.80;;;0.80;;
65289;SDS011;51893;59.754;10.110;2024-03-29T01:09:36;0.90;;;0.90;;
65289;SDS011;51893;59.754;10.110;2024-03-29T01:12:02;0.90;;;0.90;;
65289;SDS011;51893;59.754;10.110;2024-03-29T01:14:31;0.90;;;0.90;;
65289;SDS011;51893;59.754;10.110;2024-03-29T01:16:59;0.60;;;0.60;;
65289;SDS011;51893;59.754;10.110;2024-03-29T01:19:28;0.90;;;0.90;;
65289;SDS011;51893;59.754;10.110;2024-03-29T01:21:54;0.90;;;0.90;;
65289;SDS011;51893;59.754;10.110;2024-03-29T01:24:21;1.00;;;0.90;;
65289;SDS011;51893;59.754;10.110;2024-03-29T01:26:47;1.00;;;0.90;;
65289;SDS011;51893;59.754;10.110;2024-03-29T01:29:14;0.80;;;0.80;;
65289;SDS011;51893;59.754;10.110;2024-03-29T01:31:41;1.40;;;1.10;;
65289;SDS011;51893;59.754;10.110;2024-03-29T01:34:10;1.00;;;0.80;;
65289;SDS011;51893;59.754;10.110;2024-03-29T01:36:36;0.70;;;0.70;;
65289;SDS011;51893;59.754;10.110;2024-03-29T01:39:04;0.80;;;0.80;;
65289;SDS011;51893;59.754;10.110;2024-03-29T01:41:30;1.00;;;1.00;;
65289;SDS011;51893;59.754;10.110;2024-03-29T01:43:59;0.70;;;0.70;;
65289;SDS011;51893;59.754;10.110;2024-03-29T01:46:27;1.20;;;0.70;;
65289;SDS011;51893;59.754;10.110;2024-03-29T01:48:54;0.70;;;0.70;;
65289;SDS011;51893;59.754;10.110;2024-03-29T01:51:23;1.00;;;0.70;;
65289;SDS011;51893;59.754;10.110;2024-03-29T01:53:54;0.60;;;0.60;;
65289;SDS011;51893;59.754;10.110;2024-03-29T01:56:22;1.00;;;0.80;;
65289;SDS011;51893;59.754;10.110;2024-03-29T01:58:51;0.90;;;0.90;;
65289;SDS011;51893;59.754;10.110;2024-03-29T02:01:20;1.40;;;0.60;;
65289;SDS011;51893;59.754;10.110;2024-03-29T02:03:48;0.60;;;0.60;;
65289;SDS011;51893;59.754;10.110;2024-03-29T02:06:18;1.50;;;0.70;;
65289;SDS011;51893;59.754;10.110;2024-03-29T02:08:46;0.70;;;0.70;;
65289;SDS011;51893;59.754;10.110;2024-03-29T02:11:18;0.80;;;0.80;;
65289;SDS011;51893;59.754;10.110;2024-03-29T02:13:45;0.70;;;0.70;;
65289;SDS011;51893;59.754;10.110;2024-03-29T02:16:12;0.80;;;0.80;;
65289;SDS011;51893;59.754;10.110;2024-03-29T02:18:40;1.30;;;1.10;;
65289;SDS011;51893;59.754;10.110;2024-03-29T02:21:07;4.80;;;2.30;;
65289;SDS011;51893;59.754;10.110;2024-03-29T02:23:38;4.10;;;2.20;;
65289;SDS011;51893;59.754;10.110;2024-03-29T02:26:10;4.20;;;2.30;;
65289;SDS011;51893;59.754;10.110;2024-03-29T02:28:39;7.60;;;2.80;;
65289;SDS011;51893;59.754;10.110;2024-03-29T02:31:06;5.20;;;2.30;;
65289;SDS011;51893;59.754;10.110;2024-03-29T02:33:32;7.90;;;2.60;;
65289;SDS011;51893;59.754;10.110;2024-03-29T02:35:59;4.30;;;2.10;;
65289;SDS011;51893;59.754;10.110;2024-03-29T02:38:25;7.50;;;3.30;;
65289;SDS011;51893;59.754;10.110;2024-03-29T02:40:53;7.30;;;3.00;;
65289;SDS011;51893;59.754;10.110;2024-03-29T02:43:19;7.10;;;2.60;;
65289;SDS011;51893;59.754;10.110;2024-03-29T02:45:46;10.30;;;3.70;;
65289;SDS011;51893;59.754;10.110;2024-03-29T02:48:13;9.50;;;3.10;;
65289;SDS011;51893;59.754;10.110;2024-03-29T02:50:40;11.70;;;3.20;;
65289;SDS011;51893;59.754;10.110;2024-03-29T02:53:06;13.40;;;3.50;;
65289;SDS011;51893;59.754;10.110;2024-03-29T02:55:33;8.90;;;2.60;;
65289;SDS011;51893;59.754;10.110;2024-03-29T02:57:59;8.00;;;2.70;;
65289;SDS011;51893;59.754;10.110;2024-03-29T03:00:26;7.30;;;2.40;;
65289;SDS011;51893;59.754;10.110;2024-03-29T03:02:52;10.00;;;3.30;;
65289;SDS011;51893;59.754;10.110;2024-03-29T03:05:19;7.30;;;2.20;;
65289;SDS011;51893;59.754;10.110;2024-03-29T03:07:45;12.70;;;3.20;;
65289;SDS011;51893;59.754;10.110;2024-03-29T03:10:33;11.80;;;3.30;;
65289;SDS011;51893;59.754;10.110;2024-03-29T03:13:19;9.30;;;3.40;;
65289;SDS011;51893;59.754;10.110;2024-03-29T03:15:45;6.10;;;2.60;;
65289;SDS011;51893;59.754;10.110;2024-03-29T03:18:12;10.50;;;3.20;;
65289;SDS011;51893;59.754;10.110;2024-03-29T03:20:40;7.00;;;3.00;;
65289;SDS011;51893;59.754;10.110;2024-03-29T03:23:07;11.30;;;3.40;;
65289;SDS011;51893;59.754;10.110;2024-03-29T03:25:34;6.50;;;2.70;;
65289;SDS011;51893;59.754;10.110;2024-03-29T03:28:00;9.50;;;3.30;;
65289;SDS011;51893;59.754;10.110;2024-03-29T03:30:27;9.80;;;3.10;;
65289;SDS011;51893;59.754;10.110;2024-03-29T03:32:55;8.70;;;3.00;;
65289;SDS011;51893;59.754;10.110;2024-03-29T03:35:22;9.10;;;2.90;;
65289;SDS011;51893;59.754;10.110;2024-03-29T03:37:48;6.00;;;2.30;;
65289;SDS011;51893;59.754;10.110;2024-03-29T03:40:15;14.30;;;3.80;;
65289;SDS011;51893;59.754;10.110;2024-03-29T03:42:42;9.80;;;3.10;;
65289;SDS011;51893;59.754;10.110;2024-03-29T03:45:08;9.80;;;3.00;;
65289;SDS011;51893;59.754;10.110;2024-03-29T03:47:35;12.30;;;3.10;;
65289;SDS011;51893;59.754;10.110;2024-03-29T03:50:05;4.60;;;2.00;;
65289;SDS011;51893;59.754;10.110;2024-03-29T03:52:32;10.40;;;3.60;;
65289;SDS011;51893;59.754;10.110;2024-03-29T03:54:58;7.60;;;2.50;;
65289;SDS011;51893;59.754;10.110;2024-03-29T03:57:25;4.80;;;2.30;;
65289;SDS011;51893;59.754;10.110;2024-03-29T03:59:54;11.30;;;3.30;;
65289;SDS011;51893;59.754;10.110;2024-03-29T04:02:21;8.90;;;2.70;;
65289;SDS011;51893;59.754;10.110;2024-03-29T04:04:49;7.60;;;2.10;;
65289;SDS011;51893;59.754;10.110;2024-03-29T04:07:18;3.20;;;1.60;;
65289;SDS011;51893;59.754;10.110;2024-03-29T04:09:45;5.50;;;1.90;;
65289;SDS011;51893;59.754;10.110;2024-03-29T04:12:12;4.10;;;1.80;;
65289;SDS011;51893;59.754;10.110;2024-03-29T04:14:41;6.80;;;2.20;;
65289;SDS011;51893;59.754;10.110;2024-03-29T04:17:08;3.50;;;1.50;;
65289;SDS011;51893;59.754;10.110;2024-03-29T04:19:35;2.40;;;1.20;;
65289;SDS011;51893;59.754;10.110;2024-03-29T04:22:02;2.20;;;1.20;;
65289;SDS011;51893;59.754;10.110;2024-03-29T04:24:30;5.60;;;1.10;;
65289;SDS011;51893;59.754;10.110;2024-03-29T04:26:57;2.90;;;1.20;;
65289;SDS011;51893;59.754;10.110;2024-03-29T04:29:24;1.40;;;1.00;;
65289;SDS011;51893;59.754;10.110;2024-03-29T04:31:50;3.30;;;1.20;;
65289;SDS011;51893;59.754;10.110;2024-03-29T04:34:17;2.50;;;1.00;;
65289;SDS011;51893;59.754;10.110;2024-03-29T04:36:44;2.50;;;1.40;;
65289;SDS011;51893;59.754;10.110;2024-03-29T04:39:11;6.30;;;1.90;;
65289;SDS011;51893;59.754;10.110;2024-03-29T04:41:38;4.40;;;1.90;;
65289;SDS011;51893;59.754;10.110;2024-03-29T04:44:07;7.20;;;2.20;;
65289;SDS011;51893;59.754;10.110;2024-03-29T04:46:35;5.50;;;1.80;;
65289;SDS011;51893;59.754;10.110;2024-03-29T04:49:02;3.70;;;2.00;;
65289;SDS011;51893;59.754;10.110;2024-03-29T04:51:31;4.80;;;1.70;;
65289;SDS011;51893;59.754;10.110;2024-03-29T04:53:58;3.10;;;1.50;;
65289;SDS011;51893;59.754;10.110;2024-03-29T04:56:25;5.00;;;1.80;;
65289;SDS011;51893;59.754;10.110;2024-03-29T04:58:51;3.20;;;1.70;;
65289;SDS011;51893;59.754;10.110;2024-03-29T05:01:19;5.20;;;1.60;;
65289;SDS011;51893;59.754;10.110;2024-03-29T05:03:47;3.20;;;1.90;;
65289;SDS011;51893;59.754;10.110;2024-03-29T05:06:13;3.80;;;1.30;;
65289;SDS011;51893;59.754;10.110;2024-03-29T05:08:40;3.50;;;1.70;;
65289;SDS011;51893;59.754;10.110;2024-03-29T05:11:06;5.00;;;1.70;;
65289;SDS011;51893;59.754;10.110;2024-03-29T05:13:34;6.00;;;2.40;;
65289;SDS011;51893;59.754;10.110;2024-03-29T05:16:01;4.60;;;1.80;;
65289;SDS011;51893;59.754;10.110;2024-03-29T05:18:28;2.40;;;1.40;;
65289;SDS011;51893;59.754;10.110;2024-03-29T05:20:57;3.70;;;1.30;;
65289;SDS011;51893;59.754;10.110;2024-03-29T05:23:23;2.40;;;1.40;;
65289;SDS011;51893;59.754;10.110;2024-03-29T05:25:50;2.20;;;1.80;;
65289;SDS011;51893;59.754;10.110;2024-03-29T05:28:18;2.80;;;1.80;;
65289;SDS011;51893;59.754;10.110;2024-03-29T05:30:46;4.30;;;1.90;;
65289;SDS011;51893;59.754;10.110;2024-03-29T05:33:14;3.90;;;1.60;;
65289;SDS011;51893;59.754;10.110;2024-03-29T05:35:43;2.60;;;1.60;;
65289;SDS011;51893;59.754;10.110;2024-03-29T05:38:10;2.50;;;1.20;;
65289;SDS011;51893;59.754;10.110;2024-03-29T05:40:37;4.30;;;2.00;;
65289;SDS011;51893;59.754;10.110;2024-03-29T05:43:04;3.00;;;2.00;;
65289;SDS011;51893;59.754;10.110;2024-03-29T05:45:31;5.00;;;1.60;;
65289;SDS011;51893;59.754;10.110;2024-03-29T05:47:58;4.60;;;1.90;;
65289;SDS011;51893;59.754;10.110;2024-03-29T05:50:25;3.90;;;1.40;;
65289;SDS011;51893;59.754;10.110;2024-03-29T05:52:54;2.60;;;1.50;;
65289;SDS011;51893;59.754;10.110;2024-03-29T05:55:21;4.00;;;1.30;;
65289;SDS011;51893;59.754;10.110;2024-03-29T05:57:47;1.70;;;1.30;;
65289;SDS011;51893;59.754;10.110;2024-03-29T06:00:15;3.50;;;1.40;;
65289;SDS011;51893;59.754;10.110;2024-03-29T06:02:42;1.60;;;1.30;;
65289;SDS011;51893;59.754;10.110;2024-03-29T06:05:13;3.30;;;1.20;;
65289;SDS011;51893;59.754;10.110;2024-03-29T06:07:40;1.50;;;1.00;;
65289;SDS011;51893;59.754;10.110;2024-03-29T06:10:07;1.10;;;0.90;;
65289;SDS011;51893;59.754;10.110;2024-03-29T06:12:36;2.30;;;0.90;;
65289;SDS011;51893;59.754;10.110;2024-03-29T06:15:05;1.70;;;1.20;;
65289;SDS011;51893;59.754;10.110;2024-03-29T06:17:52;1.80;;;1.00;;
65289;SDS011;51893;59.754;10.110;2024-03-29T06:20:18;1.90;;;1.30;;
65289;SDS011;51893;59.754;10.110;2024-03-29T06:22:48;2.80;;;1.30;;
65289;SDS011;51893;59.754;10.110;2024-03-29T06:25:17;2.60;;;1.70;;
65289;SDS011;51893;59.754;10.110;2024-03-29T06:27:44;4.00;;;1.60;;
65289;SDS011;51893;59.754;10.110;2024-03-29T06:30:15;3.10;;;1.50;;
65289;SDS011;51893;59.754;10.110;2024-03-29T06:32:45;2.00;;;1.30;;
65289;SDS011;51893;59.754;10.110;2024-03-29T06:35:13;2.60;;;1.90;;
65289;SDS011;51893;59.754;10.110;2024-03-29T06:37:40;3.60;;;2.20;;
65289;SDS011;51893;59.754;10.110;2024-03-29T06:40:08;2.80;;;1.70;;
65289;SDS011;51893;59.754;10.110;2024-03-29T06:42:36;3.20;;;1.20;;
65289;SDS011;51893;59.754;10.110;2024-03-29T06:45:03;1.10;;;1.00;;
65289;SDS011;51893;59.754;10.110;2024-03-29T06:47:32;1.50;;;1.20;;
65289;SDS011;51893;59.754;10.110;2024-03-29T06:49:59;1.80;;;1.20;;
65289;SDS011;51893;59.754;10.110;2024-03-29T06:52:25;2.30;;;1.30;;
65289;SDS011;51893;59.754;10.110;2024-03-29T06:54:52;3.40;;;2.40;;
65289;SDS011;51893;59.754;10.110;2024-03-29T06:57:19;3.40;;;2.20;;
65289;SDS011;51893;59.754;10.110;2024-03-29T06:59:51;3.40;;;2.40;;
65289;SDS011;51893;59.754;10.110;2024-03-29T07:02:19;2.90;;;2.40;;
65289;SDS011;51893;59.754;10.110;2024-03-29T07:04:46;5.30;;;2.60;;
65289;SDS011;51893;59.754;10.110;2024-03-29T07:07:16;3.70;;;2.20;;
65289;SDS011;51893;59.754;10.110;2024-03-29T07:09:43;3.80;;;2.00;;
65289;SDS011;51893;59.754;10.110;2024-03-29T07:12:10;4.70;;;3.40;;
65289;SDS011;51893;59.754;10.110;2024-03-29T07:14:37;3.90;;;2.40;;
65289;SDS011;51893;59.754;10.110;2024-03-29T07:17:04;2.80;;;1.70;;
65289;SDS011;51893;59.754;10.110;2024-03-29T07:19:31;1.80;;;1.50;;
65289;SDS011;51893;59.754;10.110;2024-03-29T07:21:57;1.50;;;1.30;;
65289;SDS011;51893;59.754;10.110;2024-03-29T07:24:25;3.50;;;1.40;;
65289;SDS011;51893;59.754;10.110;2024-03-29T07:26:53;2.60;;;1.50;;
65289;SDS011;51893;59.754;10.110;2024-03-29T07:29:23;2.90;;;1.50;;
65289;SDS011;51893;59.754;10.110;2024-03-29T07:31:50;1.80;;;1.50;;
65289;SDS011;51893;59.754;10.110;2024-03-29T07:34:19;2.30;;;1.30;;
65289;SDS011;51893;59.754;10.110;2024-03-29T07:36:46;2.50;;;1.20;;
65289;SDS011;51893;59.754;10.110;2024-03-29T07:39:14;1.00;;;1.00;;
65289;SDS011;51893;59.754;10.110;2024-03-29T07:41:40;1.00;;;1.00;;
65289;SDS011;51893;59.754;10.110;2024-03-29T07:44:07;2.40;;;1.10;;
65289;SDS011;51893;59.754;10.110;2024-03-29T07:46:36;1.40;;;1.10;;
65289;SDS011;51893;59.754;10.110;2024-03-29T07:49:07;1.40;;;1.20;;
65289;SDS011;51893;59.754;10.110;2024-03-29T07:51:38;2.60;;;1.50;;
65289;SDS011;51893;59.754;10.110;2024-03-29T07:54:05;1.10;;;1.00;;
65289;SDS011;51893;59.754;10.110;2024-03-29T07:56:32;1.00;;;1.00;;
65289;SDS011;51893;59.754;10.110;2024-03-29T07:58:59;1.10;;;0.90;;
65289;SDS011;51893;59.754;10.110;2024-03-29T08:01:26;3.50;;;1.00;;
65289;SDS011;51893;59.754;10.110;2024-03-29T08:04:03;1.00;;;1.00;;
65289;SDS011;51893;59.754;10.110;2024-03-29T08:06:31;1.50;;;1.10;;
65289;SDS011;51893;59.754;10.110;2024-03-29T08:08:58;1.50;;;0.80;;
65289;SDS011;51893;59.754;10.110;2024-03-29T08:11:24;0.70;;;0.70;;
65289;SDS011;51893;59.754;10.110;2024-03-29T08:13:51;1.30;;;1.20;;
65289;SDS011;51893;59.754;10.110;2024-03-29T08:16:21;0.90;;;0.90;;
65289;SDS011;51893;59.754;10.110;2024-03-29T08:18:52;1.20;;;0.80;;
65289;SDS011;51893;59.754;10.110;2024-03-29T08:21:19;0.60;;;0.60;;
65289;SDS011;51893;59.754;10.110;2024-03-29T08:23:48;0.60;;;0.60;;
65289;SDS011;51893;59.754;10.110;2024-03-29T08:26:16;2.10;;;0.70;;
65289;SDS011;51893;59.754;10.110;2024-03-29T08:28:45;1.30;;;0.90;;
65289;SDS011;51893;59.754;10.110;2024-03-29T08:31:13;0.80;;;0.80;;
65289;SDS011;51893;59.754;10.110;2024-03-29T08:33:50;0.70;;;0.70;;
65289;SDS011;51893;59.754;10.110;2024-03-29T08:36:28;0.90;;;0.80;;
65289;SDS011;51893;59.754;10.110;2024-03-29T08:38:57;0.70;;;0.70;;
65289;SDS011;51893;59.754;10.110;2024-03-29T08:41:23;0.90;;;0.70;;
65289;SDS011;51893;59.754;10.110;2024-03-29T08:43:50;0.70;;;0.70;;
65289;SDS011;51893;59.754;10.110;2024-03-29T08:46:16;0.80;;;0.80;;
65289;SDS011;51893;59.754;10.110;2024-03-29T08:48:43;1.20;;;1.00;;
65289;SDS011;51893;59.754;10.110;2024-03-29T08:51:10;0.70;;;0.70;;
65289;SDS011;51893;59.754;10.110;2024-03-29T08:53:37;1.10;;;0.70;;
65289;SDS011;51893;59.754;10.110;2024-03-29T08:56:03;0.80;;;0.80;;
65289;SDS011;51893;59.754;10.110;2024-03-29T08:58:31;0.90;;;0.80;;
65289;SDS011;51893;59.754;10.110;2024-03-29T09:00:58;0.60;;;0.60;;
65289;SDS011;51893;59.754;10.110;2024-03-29T09:03:29;1.20;;;0.80;;
65289;SDS011;51893;59.754;10.110;2024-03-29T09:05:56;0.50;;;0.50;;
65289;SDS011;51893;59.754;10.110;2024-03-29T09:08:25;0.40;;;0.40;;
65289;SDS011;51893;59.754;10.110;2024-03-29T09:10:51;2.80;;;0.50;;
65289;SDS011;51893;59.754;10.110;2024-03-29T09:13:18;0.40;;;0.40;;
65289;SDS011;51893;59.754;10.110;2024-03-29T09:15:46;0.40;;;0.40;;
65289;SDS011;51893;59.754;10.110;2024-03-29T09:18:13;0.50;;;0.50;;
65289;SDS011;51893;59.754;10.110;2024-03-29T09:20:59;0.70;;;0.50;;
65289;SDS011;51893;59.754;10.110;2024-03-29T09:23:27;0.40;;;0.40;;
65289;SDS011;51893;59.754;10.110;2024-03-29T09:25:56;0.50;;;0.50;;
65289;SDS011;51893;59.754;10.110;2024-03-29T09:28:24;0.40;;;0.40;;
65289;SDS011;51893;59.754;10.110;2024-03-29T09:30:57;0.40;;;0.40;;
65289;SDS011;51893;59.754;10.110;2024-03-29T09:33:26;0.40;;;0.40;;
65289;SDS011;51893;59.754;10.110;2024-03-29T09:35:54;0.40;;;0.40;;
65289;SDS011;51893;59.754;10.110;2024-03-29T09:38:27;0.40;;;0.40;;
65289;SDS011;51893;59.754;10.110;2024-03-29T09:43:32;0.40;;;0.40;;
65289;SDS011;51893;59.754;10.110;2024-03-29T09:46:03;0.40;;;0.40;;
65289;SDS011;51893;59.754;10.110;2024-03-29T09:48:31;0.40;;;0.40;;
65289;SDS011;51893;59.754;10.110;2024-03-29T09:51:05;0.80;;;0.50;;
65289;SDS011;51893;59.754;10.110;2024-03-29T09:53:35;3.00;;;0.40;;
65289;SDS011;51893;59.754;10.110;2024-03-29T09:56:06;0.50;;;0.50;;
65289;SDS011;51893;59.754;10.110;2024-03-29T09:58:36;0.50;;;0.50;;
65289;SDS011;51893;59.754;10.110;2024-03-29T10:01:05;0.30;;;0.30;;
65289;SDS011;51893;59.754;10.110;2024-03-29T10:03:48;0.30;;;0.30;;
65289;SDS011;51893;59.754;10.110;2024-03-29T10:06:19;0.40;;;0.40;;
65289;SDS011;51893;59.754;10.110;2024-03-29T10:08:50;0.40;;;0.40;;
65289;SDS011;51893;59.754;10.110;2024-03-29T10:11:27;0.50;;;0.50;;
65289;SDS011;51893;59.754;10.110;2024-03-29T10:13:54;0.40;;;0.40;;
65289;SDS011;51893;59.754;10.110;2024-03-29T10:16:20;0.40;;;0.40;;
65289;SDS011;51893;59.754;10.110;2024-03-29T10:18:47;0.50;;;0.50;;
65289;SDS011;51893;59.754;10.110;2024-03-29T10:21:24;0.60;;;0.60;;
65289;SDS011;51893;59.754;10.110;2024-03-29T10:23:53;1.00;;;0.70;;
65289;SDS011;51893;59.754;10.110;2024-03-29T10:26:21;0.90;;;0.80;;
65289;SDS011;51893;59.754;10.110;2024-03-29T10:28:48;0.80;;;0.80;;
65289;SDS011;51893;59.754;10.110;2024-03-29T10:31:20;1.00;;;0.90;;
65289;SDS011;51893;59.754;10.110;2024-03-29T10:33:47;1.20;;;0.60;;
65289;SDS011;51893;59.754;10.110;2024-03-29T10:36:17;1.50;;;0.80;;
65289;SDS011;51893;59.754;10.110;2024-03-29T10:38:45;1.00;;;0.80;;
65289;SDS011;51893;59.754;10.110;2024-03-29T10:41:15;1.10;;;0.80;;
65289;SDS011;51893;59.754;10.110;2024-03-29T10:43:42;1.10;;;1.00;;
65289;SDS011;51893;59.754;10.110;2024-03-29T10:46:12;0.90;;;0.90;;
65289;SDS011;51893;59.754;10.110;2024-03-29T10:48:42;2.00;;;0.90;;
65289;SDS011;51893;59.754;10.110;2024-03-29T10:51:11;1.60;;;1.00;;
65289;SDS011;51893;59.754;10.110;2024-03-29T10:53:39;1.70;;;1.10;;
65289;SDS011;51893;59.754;10.110;2024-03-29T10:56:07;1.60;;;1.10;;
65289;SDS011;51893;59.754;10.110;2024-03-29T10:58:40;2.10;;;1.30;;
65289;SDS011;51893;59.754;10.110;2024-03-29T11:01:12;2.80;;;1.00;;
65289;SDS011;51893;59.754;10.110;2024-03-29T11:03:45;2.80;;;1.20;;
65289;SDS011;51893;59.754;10.110;2024-03-29T11:06:21;2.80;;;1.10;;
65289;SDS011;51893;59.754;10.110;2024-03-29T11:08:54;2.70;;;1.30;;
65289;SDS011;51893;59.754;10.110;2024-03-29T11:11:27;0.70;;;0.70;;
65289;SDS011;51893;59.754;10.110;2024-03-29T11:14:03;2.30;;;1.10;;
65289;SDS011;51893;59.754;10.110;2024-03-29T11:16:34;3.10;;;1.10;;
65289;SDS011;51893;59.754;10.110;2024-03-29T11:19:02;2.40;;;1.00;;
65289;SDS011;51893;59.754;10.110;2024-03-29T11:21:32;2.40;;;1.30;;
65289;SDS011;51893;59.754;10.110;2024-03-29T11:24:03;1.80;;;1.30;;
65289;SDS011;51893;59.754;10.110;2024-03-29T11:26:32;1.20;;;0.90;;
65289;SDS011;51893;59.754;10.110;2024-03-29T11:29:00;4.70;;;1.10;;
65289;SDS011;51893;59.754;10.110;2024-03-29T11:31:37;1.40;;;1.20;;
65289;SDS011;51893;59.754;10.110;2024-03-29T11:34:08;3.80;;;1.30;;
65289;SDS011;51893;59.754;10.110;2024-03-29T11:36:39;4.00;;;1.40;;
65289;SDS011;51893;59.754;10.110;2024-03-29T11:39:07;1.50;;;1.00;;
65289;SDS011;51893;59.754;10.110;2024-03-29T11:41:35;3.40;;;1.20;;
65289;SDS011;51893;59.754;10.110;2024-03-29T11:44:02;3.20;;;1.40;;
65289;SDS011;51893;59.754;10.110;2024-03-29T11:46:29;3.80;;;1.40;;
65289;SDS011;51893;59.754;10.110;2024-03-29T11:49:01;3.90;;;1.50;;
65289;SDS011;51893;59.754;10.110;2024-03-29T11:51:30;4.50;;;1.50;;
65289;SDS011;51893;59.754;10.110;2024-03-29T11:54:00;3.60;;;1.30;;
65289;SDS011;51893;59.754;10.110;2024-03-29T11:56:30;2.90;;;1.40;;
65289;SDS011;51893;59.754;10.110;2024-03-29T11:58:56;4.60;;;1.70;;
65289;SDS011;51893;59.754;10.110;2024-03-29T12:01:26;2.70;;;1.20;;
65289;SDS011;51893;59.754;10.110;2024-03-29T12:03:55;4.60;;;1.50;;
65289;SDS011;51893;59.754;10.110;2024-03-29T12:06:22;4.00;;;1.90;;
65289;SDS011;51893;59.754;10.110;2024-03-29T12:08:49;4.90;;;1.70;;
65289;SDS011;51893;59.754;10.110;2024-03-29T12:11:18;7.10;;;2.10;;
65289;SDS011;51893;59.754;10.110;2024-03-29T12:13:48;6.40;;;2.10;;
65289;SDS011;51893;59.754;10.110;2024-03-29T12:16:16;5.40;;;2.00;;
65289;SDS011;51893;59.754;10.110;2024-03-29T12:18:47;3.10;;;1.70;;
65289;SDS011;51893;59.754;10.110;2024-03-29T12:21:14;4.10;;;1.80;;
65289;SDS011;51893;59.754;10.110;2024-03-29T12:23:48;5.60;;;1.90;;
65289;SDS011;51893;59.754;10.110;2024-03-29T12:26:16;5.30;;;2.00;;
65289;SDS011;51893;59.754;10.110;2024-03-29T12:28:49;4.80;;;1.60;;
65289;SDS011;51893;59.754;10.110;2024-03-29T12:31:17;5.00;;;1.80;;
65289;SDS011;51893;59.754;10.110;2024-03-29T12:33:51;3.50;;;2.00;;
65289;SDS011;51893;59.754;10.110;2024-03-29T12:36:23;4.10;;;1.30;;
65289;SDS011;51893;59.754;10.110;2024-03-29T12:38:50;6.90;;;1.80;;
65289;SDS011;51893;59.754;10.110;2024-03-29T12:41:24;4.00;;;1.60;;
65289;SDS011;51893;59.754;10.110;2024-03-29T12:43:51;6.10;;;2.00;;
65289;SDS011;51893;59.754;10.110;2024-03-29T12:46:18;6.00;;;2.30;;
65289;SDS011;51893;59.754;10.110;2024-03-29T12:48:45;4.80;;;2.00;;
65289;SDS011;51893;59.754;10.110;2024-03-29T12:51:13;2.90;;;1.40;;
65289;SDS011;51893;59.754;10.110;2024-03-29T12:53:40;6.80;;;1.70;;
65289;SDS011;51893;59.754;10.110;2024-03-29T12:56:10;7.90;;;2.00;;
65289;SDS011;51893;59.754;10.110;2024-03-29T12:58:37;5.30;;;1.80;;
65289;SDS011;51893;59.754;10.110;2024-03-29T13:01:06;7.70;;;1.80;;
65289;SDS011;51893;59.754;10.110;2024-03-29T13:03:36;4.00;;;1.80;;
65289;SDS011;51893;59.754;10.110;2024-03-29T13:06:06;7.10;;;2.10;;
65289;SDS011;51893;59.754;10.110;2024-03-29T13:08:34;7.10;;;1.90;;
65289;SDS011;51893;59.754;10.110;2024-03-29T13:11:02;4.30;;;1.80;;
65289;SDS011;51893;59.754;10.110;2024-03-29T13:13:35;9.60;;;2.40;;
65289;SDS011;51893;59.754;10.110;2024-03-29T13:16:02;8.00;;;3.00;;
65289;SDS011;51893;59.754;10.110;2024-03-29T13:18:29;7.60;;;1.90;;
65289;SDS011;51893;59.754;10.110;2024-03-29T13:20:56;8.80;;;1.80;;
65289;SDS011;51893;59.754;10.110;2024-03-29T13:23:25;5.50;;;2.00;;
65289;SDS011;51893;59.754;10.110;2024-03-29T13:25:54;4.70;;;1.70;;
65289;SDS011;51893;59.754;10.110;2024-03-29T13:28:22;9.60;;;2.10;;
65289;SDS011;51893;59.754;10.110;2024-03-29T13:30:55;4.40;;;1.80;;
65289;SDS011;51893;59.754;10.110;2024-03-29T13:33:25;6.00;;;1.70;;
65289;SDS011;51893;59.754;10.110;2024-03-29T13:35:53;6.50;;;1.80;;
65289;SDS011;51893;59.754;10.110;2024-03-29T13:38:21;7.30;;;1.80;;
65289;SDS011;51893;59.754;10.110;2024-03-29T13:40:50;6.70;;;2.00;;
65289;SDS011;51893;59.754;10.110;2024-03-29T13:43:17;5.80;;;1.80;;
65289;SDS011;51893;59.754;10.110;2024-03-29T13:45:44;5.20;;;1.50;;
65289;SDS011;51893;59.754;10.110;2024-03-29T13:48:13;3.90;;;2.00;;
65289;SDS011;51893;59.754;10.110;2024-03-29T13:50:40;2.20;;;1.40;;
65289;SDS011;51893;59.754;10.110;2024-03-29T13:53:10;5.40;;;1.60;;
65289;SDS011;51893;59.754;10.110;2024-03-29T13:55:39;4.10;;;1.70;;
65289;SDS011;51893;59.754;10.110;2024-03-29T13:58:06;3.50;;;1.50;;
65289;SDS011;51893;59.754;10.110;2024-03-29T14:00:34;4.80;;;1.50;;
65289;SDS011;51893;59.754;10.110;2024-03-29T14:03:00;4.00;;;1.40;;
65289;SDS011;51893;59.754;10.110;2024-03-29T14:05:30;4.40;;;1.70;;
65289;SDS011;51893;59.754;10.110;2024-03-29T14:07:59;6.80;;;1.80;;
65289;SDS011;51893;59.754;10.110;2024-03-29T14:10:27;5.80;;;1.40;;
65289;SDS011;51893;59.754;10.110;2024-03-29T14:12:53;3.70;;;1.70;;
65289;SDS011;51893;59.754;10.110;2024-03-29T14:15:23;4.80;;;1.60;;
65289;SDS011;51893;59.754;10.110;2024-03-29T14:17:51;6.10;;;1.60;;
65289;SDS011;51893;59.754;10.110;2024-03-29T14:20:19;3.00;;;1.20;;
65289;SDS011;51893;59.754;10.110;2024-03-29T14:22:47;4.10;;;1.80;;
65289;SDS011;51893;59.754;10.110;2024-03-29T14:25:20;3.60;;;1.40;;
65289;SDS011;51893;59.754;10.110;2024-03-29T14:27:48;4.30;;;1.40;;
65289;SDS011;51893;59.754;10.110;2024-03-29T14:30:21;5.30;;;1.70;;
65289;SDS011;51893;59.754;10.110;2024-03-29T14:32:51;5.00;;;1.60;;
65289;SDS011;51893;59.754;10.110;2024-03-29T14:35:34;5.30;;;1.70;;
65289;SDS011;51893;59.754;10.110;2024-03-29T14:38:05;4.20;;;1.30;;
65289;SDS011;51893;59.754;10.110;2024-03-29T14:40:31;8.50;;;1.90;;
65289;SDS011;51893;59.754;10.110;2024-03-29T14:42:58;8.80;;;2.10;;